createdAt,value
2017-07-26T00:02:10.241Z,12.60
2017-07-26T00:04:38.650Z,12.60
2017-07-26T00:07:07.079Z,12.60
2017-07-26T00:09:35.583Z,12.60
2017-07-26T00:12:04.020Z,12.60
2017-07-26T00:14:33.135Z,12.60
2017-07-26T00:17:02.331Z,12.60
2017-07-26T00:19:31.550Z,12.70
2017-07-26T00:21:59.980Z,12.60
2017-07-26T00:24:28.441Z,12.60
2017-07-26T00:26:56.837Z,12.70
2017-07-26T00:29:25.274Z,12.70
2017-07-26T00:31:53.771Z,12.70
2017-07-26T00:34:22.209Z,12.70
2017-07-26T00:36:51.417Z,12.80
2017-07-26T00:39:20.594Z,12.70
2017-07-26T00:41:49.025Z,12.70
2017-07-26T00:44:17.442Z,12.80
2017-07-26T00:46:45.855Z,12.80
2017-07-26T00:49:15.073Z,12.80
2017-07-26T00:51:43.639Z,12.70
2017-07-26T00:54:12.822Z,12.80
2017-07-26T00:56:41.364Z,12.70
2017-07-26T00:59:09.786Z,12.70
2017-07-26T01:01:38.900Z,12.80
2017-07-26T01:04:08.102Z,12.80
2017-07-26T01:06:37.282Z,12.80
2017-07-26T01:09:05.476Z,12.70
2017-07-26T01:11:34.785Z,12.80
2017-07-26T01:14:03.227Z,12.70
2017-07-26T01:16:31.662Z,12.80
2017-07-26T01:19:00.146Z,12.80
2017-07-26T01:21:28.574Z,12.80
2017-07-26T01:23:56.987Z,12.80
2017-07-26T01:26:26.208Z,12.80
2017-07-26T01:28:54.634Z,12.80
2017-07-26T01:31:23.050Z,12.80
2017-07-26T01:33:52.374Z,12.80
2017-07-26T01:36:21.514Z,12.80
2017-07-26T01:38:50.138Z,12.80
2017-07-26T01:41:18.816Z,12.80
2017-07-26T01:43:47.991Z,12.90
2017-07-26T01:46:17.187Z,12.80
2017-07-26T01:48:45.606Z,12.80
2017-07-26T01:51:14.051Z,12.90
2017-07-26T01:53:42.470Z,12.90
2017-07-26T01:56:10.543Z,12.90
2017-07-26T01:58:38.981Z,12.90
2017-07-26T02:01:07.515Z,13.00
2017-07-26T02:03:35.943Z,12.90
2017-07-26T02:06:04.447Z,12.90
2017-07-26T02:08:33.569Z,12.90
2017-07-26T02:11:02.188Z,12.90
2017-07-26T02:13:30.627Z,13.00
2017-07-26T02:15:59.843Z,12.90
2017-07-26T02:18:28.272Z,12.90
2017-07-26T02:20:56.702Z,13.00
2017-07-26T02:23:25.123Z,12.90
2017-07-26T02:25:53.554Z,12.90
2017-07-26T02:28:22.734Z,12.90
2017-07-26T02:30:51.254Z,12.90
2017-07-26T02:33:19.693Z,13.00
2017-07-26T02:35:48.111Z,13.00
2017-07-26T02:38:16.544Z,13.00
2017-07-26T02:40:45.744Z,13.00
2017-07-26T02:43:14.238Z,13.00
2017-07-26T02:45:43.424Z,12.90
2017-07-26T02:48:11.883Z,12.90
2017-07-26T02:50:40.427Z,12.90
2017-07-26T02:53:09.614Z,13.00
2017-07-26T02:55:38.814Z,13.00
2017-07-26T02:58:08.007Z,12.90
2017-07-26T03:00:36.463Z,12.90
2017-07-26T03:03:04.891Z,12.90
2017-07-26T03:05:34.071Z,13.00
2017-07-26T03:08:03.271Z,13.00
2017-07-26T03:10:31.755Z,12.90
2017-07-26T03:13:00.958Z,12.90
2017-07-26T03:15:30.270Z,12.90
2017-07-26T03:17:59.445Z,13.00
2017-07-26T03:20:27.888Z,12.90
2017-07-26T03:22:56.318Z,12.90
2017-07-26T03:25:25.520Z,12.90
2017-07-26T03:27:54.705Z,12.90
2017-07-26T03:30:23.143Z,12.90
2017-07-26T03:32:51.952Z,12.90
2017-07-26T03:35:20.482Z,12.80
2017-07-26T03:37:49.682Z,12.80
2017-07-26T03:40:18.906Z,12.90
2017-07-26T03:42:47.163Z,12.80
2017-07-26T03:45:16.342Z,12.80
2017-07-26T03:47:44.772Z,12.80
2017-07-26T03:50:13.391Z,12.90
2017-07-26T03:52:41.814Z,12.90
2017-07-26T03:55:10.282Z,12.90
2017-07-26T03:57:39.471Z,12.90
2017-07-26T04:00:07.883Z,12.80
2017-07-26T04:02:36.318Z,12.90
2017-07-26T04:05:04.734Z,12.90
2017-07-26T04:07:33.171Z,12.90
2017-07-26T04:10:02.369Z,12.90
2017-07-26T04:12:31.490Z,12.90
2017-07-26T04:14:59.915Z,12.90
2017-07-26T04:17:28.334Z,12.90
2017-07-26T04:19:56.773Z,12.90
2017-07-26T04:22:25.211Z,13.00
2017-07-26T04:24:54.342Z,13.00
2017-07-26T04:27:22.770Z,13.00
2017-07-26T04:29:51.230Z,13.00
2017-07-26T04:32:20.360Z,13.00
2017-07-26T04:34:49.482Z,13.10
2017-07-26T04:37:18.702Z,13.10
2017-07-26T04:39:47.140Z,13.10
2017-07-26T04:42:15.580Z,13.20
2017-07-26T04:44:44.003Z,13.20
2017-07-26T04:47:12.451Z,13.20
2017-07-26T04:49:40.879Z,13.20
2017-07-26T04:52:09.313Z,13.20
2017-07-26T04:54:38.459Z,13.20
2017-07-26T04:57:06.968Z,13.10
2017-07-26T04:59:35.430Z,13.20
2017-07-26T05:02:05.376Z,13.20
2017-07-26T05:04:33.799Z,13.20
2017-07-26T05:07:02.972Z,13.20
2017-07-26T05:09:31.402Z,13.20
2017-07-26T05:11:59.861Z,13.20
2017-07-26T05:14:28.976Z,13.20
2017-07-26T05:16:57.397Z,13.20
2017-07-26T05:19:25.923Z,13.20
2017-07-26T05:21:54.460Z,13.20
2017-07-26T05:24:22.922Z,13.20
2017-07-26T05:26:52.119Z,13.20
2017-07-26T05:29:21.362Z,13.20
2017-07-26T05:31:49.783Z,13.10
2017-07-26T05:34:18.221Z,13.20
2017-07-26T05:36:46.675Z,13.20
2017-07-26T05:39:15.858Z,13.10
2017-07-26T05:41:45.063Z,13.10
2017-07-26T05:44:14.285Z,13.10
2017-07-26T05:46:42.724Z,13.10
2017-07-26T05:49:11.150Z,13.20
2017-07-26T05:51:41.034Z,13.20
2017-07-26T05:54:10.270Z,13.20
2017-07-26T05:56:38.703Z,13.20
2017-07-26T05:59:07.222Z,13.20
2017-07-26T06:01:35.646Z,13.30
2017-07-26T06:04:04.108Z,13.30
2017-07-26T06:06:32.567Z,13.30
2017-07-26T06:09:00.986Z,13.40
2017-07-26T06:11:29.443Z,13.40
2017-07-26T06:13:57.871Z,13.40
2017-07-26T06:16:26.333Z,13.30
2017-07-26T06:18:55.467Z,13.30
2017-07-26T06:21:24.688Z,13.30
2017-07-26T06:23:53.126Z,13.30
2017-07-26T06:26:21.554Z,13.30
2017-07-26T06:28:50.015Z,13.40
2017-07-26T06:31:18.867Z,13.50
2017-07-26T06:33:47.309Z,13.40
2017-07-26T06:36:15.983Z,13.60
2017-07-26T06:38:45.198Z,13.80
2017-07-26T06:41:14.398Z,13.80
2017-07-26T06:43:42.978Z,13.80
2017-07-26T06:46:11.438Z,13.90
2017-07-26T06:48:39.857Z,13.80
2017-07-26T06:51:09.759Z,13.70
2017-07-26T06:53:38.219Z,13.60
2017-07-26T06:56:07.420Z,13.60
2017-07-26T06:58:37.662Z,13.60
2017-07-26T07:01:06.855Z,13.50
2017-07-26T07:03:36.155Z,13.50
2017-07-26T07:06:05.354Z,13.40
2017-07-26T07:08:34.566Z,13.40
2017-07-26T07:11:03.016Z,13.40
2017-07-26T07:13:31.463Z,13.50
2017-07-26T07:15:59.894Z,13.60
2017-07-26T07:18:29.125Z,13.70
2017-07-26T07:20:57.562Z,13.70
2017-07-26T07:23:25.999Z,13.80
2017-07-26T07:25:54.430Z,13.70
2017-07-26T07:28:23.634Z,13.60
2017-07-26T07:30:52.825Z,13.70
2017-07-26T07:33:22.025Z,13.80
2017-07-26T07:35:51.230Z,13.90
2017-07-26T07:38:20.448Z,14.00
2017-07-26T07:40:48.890Z,13.90
2017-07-26T07:43:17.310Z,14.00
2017-07-26T07:45:45.768Z,13.90
2017-07-26T07:48:14.323Z,13.90
2017-07-26T07:50:42.738Z,13.90
2017-07-26T07:53:11.182Z,13.90
2017-07-26T07:55:39.603Z,13.90
2017-07-26T07:58:08.036Z,13.90
2017-07-26T08:00:36.476Z,13.90
2017-07-26T08:03:04.911Z,13.90
2017-07-26T08:05:33.349Z,13.90
2017-07-26T08:08:01.791Z,13.80
2017-07-26T08:10:30.226Z,13.70
2017-07-26T08:12:58.724Z,13.70
2017-07-26T08:15:27.148Z,13.80
2017-07-26T08:17:55.590Z,13.80
2017-07-26T08:20:24.019Z,13.80
2017-07-26T08:22:52.471Z,13.80
2017-07-26T08:25:20.906Z,13.70
2017-07-26T08:27:49.339Z,13.70
2017-07-26T08:30:17.796Z,13.70
2017-07-26T08:32:46.295Z,13.70
2017-07-26T08:35:14.754Z,13.60
2017-07-26T08:37:43.182Z,13.60
2017-07-26T08:40:11.622Z,13.60
2017-07-26T08:42:40.071Z,13.60
2017-07-26T08:45:08.523Z,13.50
2017-07-26T08:47:37.143Z,13.50
2017-07-26T08:50:05.572Z,13.60
2017-07-26T08:52:34.010Z,13.70
2017-07-26T08:55:02.484Z,13.80
2017-07-26T08:57:31.000Z,13.80
2017-07-26T08:59:59.430Z,13.90
2017-07-26T09:02:28.655Z,13.70
2017-07-26T09:04:57.151Z,13.70
2017-07-26T09:07:25.579Z,13.70
2017-07-26T09:09:54.021Z,13.70
2017-07-26T09:12:23.375Z,13.60
2017-07-26T09:14:52.576Z,13.50
2017-07-26T09:17:21.691Z,13.60
2017-07-26T09:19:50.135Z,13.60
2017-07-26T09:22:18.598Z,13.60
2017-07-26T09:24:47.030Z,13.70
2017-07-26T09:27:15.477Z,13.70
2017-07-26T09:29:43.904Z,13.70
2017-07-26T09:32:12.380Z,13.80
2017-07-26T09:34:40.925Z,13.80
2017-07-26T09:37:09.375Z,13.80
2017-07-26T09:39:37.830Z,13.90
2017-07-26T09:42:06.420Z,13.90
2017-07-26T09:44:34.858Z,13.90
2017-07-26T09:47:03.318Z,13.90
2017-07-26T09:49:31.734Z,13.90
2017-07-26T09:52:01.083Z,13.90
2017-07-26T09:54:29.527Z,13.90
2017-07-26T09:56:57.958Z,13.90
2017-07-26T09:59:26.389Z,14.00
2017-07-26T10:01:55.654Z,14.00
2017-07-26T10:04:24.112Z,14.00
2017-07-26T10:06:52.552Z,14.00
2017-07-26T10:09:21.712Z,14.10
2017-07-26T10:11:50.156Z,14.20
2017-07-26T10:14:18.590Z,14.20
2017-07-26T10:16:47.023Z,14.30
2017-07-26T10:19:15.446Z,14.40
2017-07-26T10:21:43.900Z,14.50
2017-07-26T10:24:12.342Z,14.50
2017-07-26T10:26:41.555Z,14.50
2017-07-26T10:29:09.983Z,14.50
2017-07-26T10:31:38.455Z,14.50
2017-07-26T10:34:07.096Z,14.50
2017-07-26T10:36:36.209Z,14.60
2017-07-26T10:39:03.784Z,14.80
2017-07-26T10:41:32.206Z,14.90
2017-07-26T10:44:00.672Z,15.00
2017-07-26T10:46:29.215Z,15.00
2017-07-26T10:48:57.663Z,15.00
2017-07-26T10:51:26.201Z,15.00
2017-07-26T10:53:54.638Z,15.10
2017-07-26T10:56:23.142Z,15.10
2017-07-26T10:58:51.578Z,15.10
2017-07-26T11:01:20.011Z,15.20
2017-07-26T11:03:48.454Z,15.10
2017-07-26T11:06:16.898Z,15.20
2017-07-26T11:08:45.451Z,15.20
2017-07-26T11:11:14.995Z,15.20
2017-07-26T11:13:43.439Z,15.20
2017-07-26T11:16:11.889Z,15.30
2017-07-26T11:18:41.002Z,15.40
2017-07-26T11:21:10.196Z,15.70
2017-07-26T11:23:39.411Z,15.60
2017-07-26T11:26:07.840Z,15.60
2017-07-26T11:28:36.258Z,15.70
2017-07-26T11:31:05.510Z,15.50
2017-07-26T11:33:34.163Z,15.40
2017-07-26T11:36:02.612Z,15.40
2017-07-26T11:38:31.731Z,15.40
2017-07-26T11:41:01.098Z,15.40
2017-07-26T11:43:29.556Z,15.30
2017-07-26T11:45:57.986Z,15.20
2017-07-26T11:48:26.480Z,15.30
2017-07-26T11:50:55.663Z,15.40
2017-07-26T11:53:24.082Z,15.30
2017-07-26T11:55:52.550Z,15.30
2017-07-26T11:58:21.736Z,15.20
2017-07-26T12:00:50.935Z,15.10
2017-07-26T12:03:20.127Z,15.10
2017-07-26T12:05:49.326Z,15.10
2017-07-26T12:08:17.760Z,15.00
2017-07-26T12:10:46.209Z,15.10
2017-07-26T12:13:15.422Z,15.00
2017-07-26T12:15:43.852Z,15.00
2017-07-26T12:18:12.307Z,15.00
2017-07-26T12:20:40.746Z,15.10
2017-07-26T12:23:09.946Z,15.40
2017-07-26T12:25:39.170Z,15.30
2017-07-26T12:28:07.602Z,15.30
2017-07-26T12:30:36.045Z,15.30
2017-07-26T12:33:04.491Z,15.20
2017-07-26T12:35:33.675Z,15.10
2017-07-26T12:38:02.888Z,15.20
2017-07-26T12:40:32.091Z,15.20
2017-07-26T12:43:01.294Z,15.40
2017-07-26T12:45:30.602Z,15.50
2017-07-26T12:47:59.028Z,15.40
2017-07-26T12:50:27.463Z,15.70
2017-07-26T12:52:55.890Z,15.70
2017-07-26T12:55:24.318Z,15.80
2017-07-26T12:57:52.750Z,15.80
2017-07-26T13:00:21.201Z,15.80
2017-07-26T13:02:49.639Z,15.70
2017-07-26T13:05:18.767Z,15.60
2017-07-26T13:07:47.969Z,15.40
2017-07-26T13:10:16.392Z,15.30
2017-07-26T13:12:44.828Z,15.30
2017-07-26T13:15:13.284Z,15.10
2017-07-26T13:17:42.421Z,15.10
2017-07-26T13:20:10.859Z,15.10
2017-07-26T13:22:39.284Z,15.20
2017-07-26T13:25:07.723Z,15.30
2017-07-26T13:27:36.219Z,15.50
2017-07-26T13:30:04.295Z,15.70
2017-07-26T13:32:32.730Z,16.10
2017-07-26T13:35:01.198Z,16.30
2017-07-26T13:37:29.600Z,16.50
2017-07-26T13:39:58.045Z,17.00
2017-07-26T13:42:26.475Z,16.90
2017-07-26T13:44:54.904Z,17.10
2017-07-26T13:47:23.410Z,17.10
2017-07-26T13:49:51.854Z,17.00
2017-07-26T13:52:21.058Z,16.80
2017-07-26T13:54:50.257Z,16.80
2017-07-26T13:57:18.678Z,16.70
2017-07-26T13:59:47.147Z,16.80
2017-07-26T14:02:15.563Z,16.70
2017-07-26T14:04:44.017Z,16.50
2017-07-26T14:07:12.436Z,16.50
2017-07-26T14:09:40.870Z,16.60
2017-07-26T14:12:09.335Z,16.60
2017-07-26T14:14:37.574Z,16.50
2017-07-26T14:17:06.078Z,16.50
2017-07-26T14:19:35.276Z,16.30
2017-07-26T14:22:04.453Z,16.30
2017-07-26T14:24:33.575Z,16.30
2017-07-26T14:27:02.773Z,16.50
2017-07-26T14:29:31.990Z,16.70
2017-07-26T14:32:00.427Z,16.60
2017-07-26T14:34:28.883Z,17.10
2017-07-26T14:36:57.323Z,17.40
2017-07-26T14:39:25.762Z,17.60
2017-07-26T14:41:54.185Z,17.80
2017-07-26T14:44:22.626Z,17.90
2017-07-26T14:46:51.051Z,17.90
2017-07-26T14:49:19.522Z,17.90
2017-07-26T14:51:48.711Z,17.70
2017-07-26T14:54:17.194Z,17.70
2017-07-26T14:56:46.401Z,17.70
2017-07-26T14:59:15.592Z,17.90
2017-07-26T15:01:44.034Z,17.80
2017-07-26T15:04:12.566Z,17.90
2017-07-26T15:06:41.763Z,19.30
2017-07-26T15:09:10.971Z,20.10
2017-07-26T15:11:40.183Z,20.00
2017-07-26T15:14:08.598Z,19.90
2017-07-26T15:16:37.046Z,20.00
2017-07-26T15:19:05.479Z,20.30
2017-07-26T15:21:33.890Z,20.10
2017-07-26T15:24:03.125Z,19.20
2017-07-26T15:26:31.546Z,19.10
2017-07-26T15:28:59.987Z,18.80
2017-07-26T15:31:28.456Z,18.70
2017-07-26T15:33:56.910Z,18.60
2017-07-26T15:36:26.259Z,20.10
2017-07-26T15:38:54.675Z,20.00
2017-07-26T15:41:23.112Z,20.60
2017-07-26T15:43:51.547Z,20.30
2017-07-26T15:46:19.980Z,20.80
2017-07-26T15:48:48.392Z,21.30
2017-07-26T15:51:16.809Z,21.00
2017-07-26T15:53:45.993Z,20.70
2017-07-26T15:56:15.203Z,20.80
2017-07-26T15:58:44.396Z,20.70
2017-07-26T16:01:13.600Z,20.70
2017-07-26T16:03:42.799Z,20.80
2017-07-26T16:06:12.014Z,21.20
2017-07-26T16:08:40.451Z,21.10
2017-07-26T16:11:08.877Z,21.10
2017-07-26T16:13:37.368Z,20.50
2017-07-26T16:16:06.470Z,20.10
2017-07-26T16:18:34.980Z,19.90
2017-07-26T16:21:03.421Z,20.30
2017-07-26T16:23:32.616Z,20.00
2017-07-26T16:26:01.050Z,19.90
2017-07-26T16:28:29.479Z,19.60
2017-07-26T16:30:58.691Z,19.00
2017-07-26T16:33:27.215Z,18.90
2017-07-26T16:35:55.739Z,18.90
2017-07-26T16:38:24.947Z,18.70
2017-07-26T16:40:53.407Z,18.60
2017-07-26T16:43:21.839Z,18.60
2017-07-26T16:45:50.255Z,18.40
2017-07-26T16:48:19.412Z,18.30
2017-07-26T16:50:47.859Z,18.20
2017-07-26T16:53:17.064Z,18.40
2017-07-26T16:55:45.498Z,18.40
2017-07-26T16:58:13.942Z,18.40
2017-07-26T17:00:42.442Z,18.70
2017-07-26T17:03:10.895Z,18.80
2017-07-26T17:05:39.359Z,18.80
2017-07-26T17:08:07.803Z,18.70
2017-07-26T17:10:36.235Z,18.80
2017-07-26T17:13:04.687Z,18.80
2017-07-26T17:15:33.161Z,18.70
2017-07-26T17:18:01.610Z,19.00
2017-07-26T17:20:30.068Z,19.30
2017-07-26T17:22:58.507Z,19.60
2017-07-26T17:25:26.933Z,19.60
2017-07-26T17:27:55.423Z,19.50
2017-07-26T17:30:23.936Z,19.60
2017-07-26T17:32:52.383Z,19.50
2017-07-26T17:35:21.516Z,19.30
2017-07-26T17:37:49.950Z,17.50
2017-07-26T17:40:18.400Z,18.80
2017-07-26T17:42:46.858Z,18.50
2017-07-26T17:45:15.271Z,18.30
2017-07-26T17:47:43.711Z,18.10
2017-07-26T17:50:12.139Z,18.00
2017-07-26T17:52:40.577Z,17.90
2017-07-26T17:55:09.012Z,17.90
2017-07-26T17:57:37.468Z,18.00
2017-07-26T18:00:05.914Z,18.00
2017-07-26T18:02:34.331Z,18.00
2017-07-26T18:05:03.466Z,17.90
2017-07-26T18:07:32.656Z,17.60
2017-07-26T18:10:01.880Z,17.50
2017-07-26T18:12:30.320Z,17.40
2017-07-26T18:14:58.763Z,17.40
2017-07-26T18:17:27.914Z,17.50
2017-07-26T18:19:57.120Z,17.30
2017-07-26T18:22:26.383Z,17.20
2017-07-26T18:24:54.815Z,17.10
2017-07-26T18:27:23.288Z,17.00
2017-07-26T18:29:52.468Z,16.80
2017-07-26T18:32:21.664Z,16.80
2017-07-26T18:34:50.168Z,16.80
2017-07-26T18:37:19.398Z,16.70
2017-07-26T18:39:47.831Z,16.70
2017-07-26T18:42:16.260Z,16.70
2017-07-26T18:44:44.718Z,16.60
2017-07-26T18:47:14.146Z,16.60
2017-07-26T18:49:42.583Z,16.60
2017-07-26T18:52:10.974Z,16.60
2017-07-26T18:54:40.169Z,16.50
2017-07-26T18:57:09.376Z,16.40
2017-07-26T18:59:37.824Z,16.30
2017-07-26T19:02:06.255Z,16.40
2017-07-26T19:04:36.156Z,16.20
2017-07-26T19:07:05.353Z,16.10
2017-07-26T19:09:33.776Z,16.20
2017-07-26T19:12:02.282Z,16.20
2017-07-26T19:14:30.731Z,16.20
2017-07-26T19:16:59.214Z,16.10
2017-07-26T19:19:29.130Z,16.10
2017-07-26T19:21:57.404Z,16.00
2017-07-26T19:24:25.854Z,16.10
2017-07-26T19:26:54.992Z,16.10
2017-07-26T19:29:24.915Z,16.00
2017-07-26T19:31:54.095Z,16.00
2017-07-26T19:34:22.507Z,16.00
2017-07-26T19:36:50.954Z,16.00
2017-07-26T19:39:19.408Z,16.00
2017-07-26T19:41:47.852Z,16.00
2017-07-26T19:44:16.325Z,16.00
2017-07-26T19:46:44.746Z,16.00
2017-07-26T19:49:13.213Z,16.00
2017-07-26T19:51:41.684Z,16.00
2017-07-26T19:54:10.144Z,15.90
2017-07-26T19:56:38.599Z,15.80
2017-07-26T19:59:07.075Z,15.70
2017-07-26T20:01:36.267Z,15.50
2017-07-26T20:04:05.499Z,15.60
2017-07-26T20:06:33.968Z,15.50
2017-07-26T20:09:02.383Z,15.40
2017-07-26T20:11:30.812Z,15.30
2017-07-26T20:13:59.664Z,15.30
2017-07-26T20:16:28.220Z,15.20
2017-07-26T20:18:56.667Z,15.30
2017-07-26T20:21:25.849Z,15.30
2017-07-26T20:23:54.291Z,15.20
2017-07-26T20:26:22.714Z,15.00
2017-07-26T20:28:51.267Z,15.10
2017-07-26T20:31:19.523Z,15.10
2017-07-26T20:33:48.071Z,15.00
2017-07-26T20:36:16.531Z,15.10
2017-07-26T20:38:44.987Z,15.10
2017-07-26T20:41:13.426Z,15.00
2017-07-26T20:43:41.894Z,14.90
2017-07-26T20:46:10.325Z,14.90
2017-07-26T20:48:38.759Z,14.90
2017-07-26T20:51:07.183Z,14.80
2017-07-26T20:53:35.605Z,14.70
2017-07-26T20:56:04.065Z,14.70
2017-07-26T20:58:32.506Z,14.60
2017-07-26T21:01:01.022Z,14.80
2017-07-26T21:03:29.443Z,14.70
2017-07-26T21:05:58.651Z,14.80
2017-07-26T21:08:27.844Z,14.80
2017-07-26T21:10:56.834Z,14.80
2017-07-26T21:13:26.112Z,14.80
2017-07-26T21:15:54.534Z,14.80
2017-07-26T21:18:22.962Z,14.80
2017-07-26T21:20:51.402Z,14.70
2017-07-26T21:23:19.907Z,14.60
2017-07-26T21:25:48.319Z,14.50
2017-07-26T21:28:16.944Z,14.60
2017-07-26T21:30:46.098Z,14.60
2017-07-26T21:33:14.931Z,14.60
2017-07-26T21:35:44.157Z,14.60
2017-07-26T21:38:12.581Z,14.60
2017-07-26T21:40:41.048Z,14.60
2017-07-26T21:43:09.471Z,14.50
2017-07-26T21:45:38.775Z,14.50
2017-07-26T21:48:07.964Z,14.40
2017-07-26T21:50:37.183Z,14.30
2017-07-26T21:53:05.638Z,14.30
2017-07-26T21:55:34.070Z,14.30
2017-07-26T21:58:02.514Z,14.30
2017-07-26T22:00:31.711Z,14.10
2017-07-26T22:03:00.932Z,14.10
2017-07-26T22:05:29.349Z,14.00
2017-07-26T22:07:57.784Z,14.10
2017-07-26T22:10:27.036Z,14.00
2017-07-26T22:12:55.456Z,13.90
2017-07-26T22:15:24.670Z,13.90
2017-07-26T22:17:53.102Z,13.80
2017-07-26T22:20:21.555Z,13.80
2017-07-26T22:22:50.003Z,13.80
2017-07-26T22:25:19.200Z,13.70
2017-07-26T22:27:48.410Z,13.70
2017-07-26T22:30:16.840Z,13.60
2017-07-26T22:32:45.283Z,13.60
2017-07-26T22:35:13.694Z,13.50
2017-07-26T22:37:42.130Z,13.50
2017-07-26T22:40:11.331Z,13.50
2017-07-26T22:42:40.519Z,13.60
2017-07-26T22:45:09.738Z,13.70
2017-07-26T22:47:38.191Z,13.60
2017-07-26T22:50:06.627Z,13.80
2017-07-26T22:52:35.056Z,13.70
2017-07-26T22:55:03.495Z,13.80
2017-07-26T22:57:31.917Z,13.70
2017-07-26T23:00:00.370Z,13.70
2017-07-26T23:02:28.829Z,13.70
2017-07-26T23:04:57.259Z,13.60
2017-07-26T23:07:25.704Z,13.60
2017-07-26T23:09:54.175Z,13.50
2017-07-26T23:12:22.627Z,13.50
2017-07-26T23:14:51.811Z,13.40
2017-07-26T23:17:21.060Z,13.40
2017-07-26T23:19:49.471Z,13.30
2017-07-26T23:22:17.904Z,13.40
2017-07-26T23:24:46.407Z,13.40
2017-07-26T23:27:14.830Z,13.30
2017-07-26T23:29:43.250Z,13.30
2017-07-26T23:32:11.694Z,13.30
2017-07-26T23:34:40.106Z,13.20
2017-07-26T23:37:08.629Z,13.10
2017-07-26T23:39:37.038Z,13.10
2017-07-26T23:42:05.471Z,13.10
2017-07-26T23:44:33.903Z,13.10
2017-07-26T23:47:03.091Z,13.00
2017-07-26T23:49:31.602Z,12.90
2017-07-26T23:52:00.799Z,12.90
2017-07-26T23:54:30.003Z,12.80
2017-07-26T23:56:58.445Z,12.70
2017-07-26T23:59:26.872Z,12.70
